Time;durP1;ratioP1;P1;durP2;ratioP2;P2;SDS_P1;SDS_P2;PMS_P1;PMS_P2;Temp;Humidity;BMP_temperature;BMP_pressure;BME280_temperature;BME280_humidity;BME280_pressure;Samples;Min_cycle;Max_cycle;Signal;HPM_P1;HPM_P2
2022/04/06 00:02:23;;;;;;;;;;;10.50;99.90;;;;;;5037104;28;19913;-85
2022/04/06 00:04:49;;;;;;;;;;;10.50;99.90;;;;;;5044339;28;19917;-86
2022/04/06 00:07:15;;;;;;;;;;;10.50;99.90;;;;;;5042584;28;19935;-87
2022/04/06 00:09:41;;;;;;;;;;;10.50;99.90;;;;;;5034380;28;19921;-86
2022/04/06 00:12:07;;;;;;;;;;;10.40;99.90;;;;;;5041557;28;19921;-86
2022/04/06 00:14:33;;;;;;;;;;;10.40;99.90;;;;;;5037589;28;20301;-85
2022/04/06 00:17:03;;;;;;;;;;;10.40;99.90;;;;;;5042278;28;20304;-87
2022/04/06 00:19:30;;;;;;;;;;;10.40;99.90;;;;;;5040098;28;19921;-84
2022/04/06 00:21:55;;;;;;;;;;;10.40;99.90;;;;;;5041185;28;19914;-85
2022/04/06 00:24:21;;;;;;;;;;;10.40;99.90;;;;;;5043871;28;19913;-85
2022/04/06 00:26:46;;;;;;;;;;;10.40;99.90;;;;;;5037918;28;19917;-85
2022/04/06 00:29:12;;;;;;;;;;;10.30;99.90;;;;;;5044599;28;19927;-85
2022/04/06 00:31:37;;;;;;;;;;;10.30;99.90;;;;;;5039405;28;20340;-84
2022/04/06 00:34:03;;;;;;;;;;;10.30;99.90;;;;;;5040965;28;19913;-85
2022/04/06 00:36:29;;;;;;;;;;;10.30;99.90;;;;;;5036205;28;19927;-85
2022/04/06 00:38:55;;;;;;;;;;;10.30;99.90;;;;;;5041862;28;20010;-86
2022/04/06 00:41:21;;;;;;;;;;;10.30;99.90;;;;;;5036290;28;20461;-86
2022/04/06 00:44:06;;;;;;;;;;;10.30;99.90;;;;;;5042446;28;19959;-84
2022/04/06 00:46:31;;;;;;;;;;;10.30;99.90;;;;;;5033387;28;19918;-86
2022/04/06 00:48:57;;;;;;;;;;;10.20;99.90;;;;;;5039977;28;20281;-84
2022/04/06 00:51:22;;;;;;;;;;;10.30;99.90;;;;;;5041274;28;19913;-86
2022/04/06 00:53:48;;;;;;;;;;;10.20;99.90;;;;;;5042343;28;19935;-85
2022/04/06 00:56:13;;;;;;;;;;;10.20;99.90;;;;;;5044702;28;19916;-86
2022/04/06 00:58:39;;;;;;;;;;;10.20;99.90;;;;;;5040452;28;19913;-86
2022/04/06 01:01:04;;;;;;;;;;;10.20;99.90;;;;;;5034867;28;19963;-83
2022/04/06 01:03:29;;;;;;;;;;;10.20;89.20;;;;;;5038479;28;19945;-83
2022/04/06 01:05:55;;;;;;;;;;;10.20;92.20;;;;;;5041825;28;19940;-84
2022/04/06 01:08:20;;;;;;;;;;;10.20;99.90;;;;;;5046844;28;20365;-85
2022/04/06 01:10:46;;;;;;;;;;;10.20;99.90;;;;;;5045433;28;19967;-84
2022/04/06 01:13:12;;;;;;;;;;;10.20;99.90;;;;;;5045012;28;20343;-85
2022/04/06 01:15:37;;;;;;;;;;;10.20;99.90;;;;;;5034823;28;19921;-85
2022/04/06 01:18:03;;;;;;;;;;;10.20;99.90;;;;;;5037548;28;20382;-84
2022/04/06 01:20:29;;;;;;;;;;;10.10;99.90;;;;;;5040459;28;19917;-86
2022/04/06 01:22:54;;;;;;;;;;;10.20;95.30;;;;;;5038464;28;19963;-85
2022/04/06 01:25:20;;;;;;;;;;;10.20;6.70;;;;;;5044166;28;19917;-84
2022/04/06 01:27:45;;;;;;;;;;;10.20;99.40;;;;;;5042999;28;19920;-86
2022/04/06 01:30:11;;;;;;;;;;;10.20;99.90;;;;;;5044600;28;19913;-84
2022/04/06 01:32:36;;;;;;;;;;;10.10;99.90;;;;;;5034390;28;20313;-85
2022/04/06 01:35:03;;;;;;;;;;;10.10;99.90;;;;;;5039527;28;19970;-85
2022/04/06 01:37:29;;;;;;;;;;;10.10;99.90;;;;;;5041857;28;19921;-84
2022/04/06 01:39:55;;;;;;;;;;;10.10;99.90;;;;;;5042727;28;19937;-85
2022/04/06 01:42:21;;;;;;;;;;;10.10;63.90;;;;;;5039577;28;19912;-87
2022/04/06 01:44:47;;;;;;;;;;;10.10;99.90;;;;;;5048089;28;19925;-83
2022/04/06 01:47:15;;;;;;;;;;;10.10;99.90;;;;;;5050133;28;19920;-86
2022/04/06 01:52:25;;;;;;;;;;;10.10;99.90;;;;;;5042953;28;19920;-86
2022/04/06 01:54:52;;;;;;;;;;;10.10;94.50;;;;;;5041585;28;19921;-84
2022/04/06 01:57:18;;;;;;;;;;;10.10;1.00;;;;;;5047383;28;20000;-85
2022/04/06 01:59:44;;;;;;;;;;;10.10;21.10;;;;;;5045826;28;19949;-86
2022/04/06 02:02:10;;;;;;;;;;;10.10;14.80;;;;;;5048154;28;19913;-85
2022/04/06 02:04:36;;;;;;;;;;;10.10;1.00;;;;;;5041425;28;19980;-84
2022/04/06 02:07:02;;;;;;;;;;;10.10;1.00;;;;;;5044625;28;19967;-84
2022/04/06 02:09:27;;;;;;;;;;;10.10;29.70;;;;;;5043292;28;19912;-86
2022/04/06 02:11:53;;;;;;;;;;;10.10;34.60;;;;;;5042619;28;19924;-85
2022/04/06 02:14:19;;;;;;;;;;;10.10;1.00;;;;;;5046538;28;20142;-86
2022/04/06 02:16:44;;;;;;;;;;;10.10;1.00;;;;;;5044254;28;19960;-87
2022/04/06 02:19:10;;;;;;;;;;;10.10;1.00;;;;;;5048879;28;19920;-84
2022/04/06 02:21:35;;;;;;;;;;;10.00;18.30;;;;;;5044564;28;19927;-87
2022/04/06 02:24:01;;;;;;;;;;;10.00;1.00;;;;;;5046614;28;19936;-84
2022/04/06 02:26:27;;;;;;;;;;;10.10;84.00;;;;;;5037776;28;19913;-84
2022/04/06 02:28:53;;;;;;;;;;;10.00;99.90;;;;;;5036504;28;19917;-86
2022/04/06 02:31:18;;;;;;;;;;;10.00;99.90;;;;;;5044734;28;19925;-84
2022/04/06 02:33:44;;;;;;;;;;;10.00;99.90;;;;;;5039790;28;19948;-84
2022/04/06 02:36:09;;;;;;;;;;;10.00;52.40;;;;;;5040857;28;19917;-83
2022/04/06 02:38:38;;;;;;;;;;;10.00;99.90;;;;;;5041949;28;20323;-84
2022/04/06 02:41:05;;;;;;;;;;;10.00;99.90;;;;;;5035285;28;19967;-84
2022/04/06 02:43:31;;;;;;;;;;;10.00;99.90;;;;;;5038737;28;19913;-84
2022/04/06 02:45:59;;;;;;;;;;;10.00;99.90;;;;;;5040411;28;19913;-85
2022/04/06 02:48:25;;;;;;;;;;;10.00;99.90;;;;;;5038954;28;19921;-86
2022/04/06 02:50:50;;;;;;;;;;;10.00;99.90;;;;;;5034455;28;19948;-85
2022/04/06 02:53:16;;;;;;;;;;;10.00;99.90;;;;;;5036357;28;19913;-85
2022/04/06 02:55:41;;;;;;;;;;;9.90;99.90;;;;;;5035236;28;19997;-84
2022/04/06 02:58:06;;;;;;;;;;;9.90;99.90;;;;;;5040787;28;20480;-84
2022/04/06 03:00:32;;;;;;;;;;;9.90;1.00;;;;;;5041138;28;19913;-84
2022/04/06 03:02:58;;;;;;;;;;;9.90;1.00;;;;;;5036851;28;19913;-85
2022/04/06 03:05:24;;;;;;;;;;;9.90;1.00;;;;;;5032818;28;19917;-84
2022/04/06 03:07:50;;;;;;;;;;;9.90;1.00;;;;;;5032008;28;19921;-85
2022/04/06 03:10:16;;;;;;;;;;;9.90;1.00;;;;;;5046309;28;19956;-85
2022/04/06 03:12:41;;;;;;;;;;;9.90;1.00;;;;;;5037029;28;19948;-84
2022/04/06 03:15:07;;;;;;;;;;;9.90;99.90;;;;;;5045426;28;20266;-84
2022/04/06 03:17:32;;;;;;;;;;;9.90;99.90;;;;;;5039641;28;19935;-84
2022/04/06 03:19:58;;;;;;;;;;;9.90;1.00;;;;;;5043018;28;19917;-85
2022/04/06 03:22:23;;;;;;;;;;;9.80;1.00;;;;;;5038091;28;19913;-85
2022/04/06 03:24:49;;;;;;;;;;;9.80;1.00;;;;;;5037187;28;19920;-85
2022/04/06 03:27:14;;;;;;;;;;;9.80;1.00;;;;;;5040114;28;20363;-84
2022/04/06 03:29:40;;;;;;;;;;;9.80;99.90;;;;;;5041176;28;19921;-84
2022/04/06 03:32:09;;;;;;;;;;;9.80;99.90;;;;;;5047014;28;19913;-84
2022/04/06 03:34:35;;;;;;;;;;;9.80;99.90;;;;;;5044619;28;19951;-84
2022/04/06 03:37:01;;;;;;;;;;;9.80;1.00;;;;;;5048606;28;19929;-85
2022/04/06 03:39:26;;;;;;;;;;;9.80;99.90;;;;;;5048603;28;19992;-84
2022/04/06 03:41:52;;;;;;;;;;;9.80;1.00;;;;;;5038580;28;19909;-86
2022/04/06 03:44:17;;;;;;;;;;;9.90;99.90;;;;;;5044437;28;19913;-84
2022/04/06 03:46:43;;;;;;;;;;;9.90;99.90;;;;;;5059579;28;19909;-84
2022/04/06 03:49:08;;;;;;;;;;;9.90;99.90;;;;;;5047980;28;19917;-86
2022/04/06 03:51:34;;;;;;;;;;;9.80;20.70;;;;;;5042114;28;20358;-83
2022/04/06 03:53:59;;;;;;;;;;;9.90;1.00;;;;;;5048087;28;20381;-85
2022/04/06 03:56:26;;;;;;;;;;;9.80;1.00;;;;;;5052937;28;19916;-85
2022/04/06 03:58:51;;;;;;;;;;;9.80;1.00;;;;;;5041317;28;19914;-86
2022/04/06 04:01:17;;;;;;;;;;;9.80;1.00;;;;;;5040575;28;19917;-86
2022/04/06 04:03:42;;;;;;;;;;;9.80;1.00;;;;;;5039129;28;20004;-84
2022/04/06 04:06:08;;;;;;;;;;;9.80;99.90;;;;;;5049987;28;19917;-85
2022/04/06 04:08:33;;;;;;;;;;;9.80;99.90;;;;;;5039063;28;19935;-86
2022/04/06 04:10:59;;;;;;;;;;;9.80;99.90;;;;;;5044536;28;20007;-84
2022/04/06 04:13:24;;;;;;;;;;;9.80;99.90;;;;;;5037349;28;20270;-84
2022/04/06 04:15:50;;;;;;;;;;;9.80;99.90;;;;;;5039778;28;19917;-83
2022/04/06 04:18:15;;;;;;;;;;;9.80;99.90;;;;;;5044918;28;19913;-84
2022/04/06 04:20:45;;;;;;;;;;;9.80;99.90;;;;;;5043949;28;20048;-84
2022/04/06 04:23:11;;;;;;;;;;;9.80;99.90;;;;;;5040811;28;19952;-85
2022/04/06 04:25:36;;;;;;;;;;;9.80;99.90;;;;;;5040889;28;19974;-84
2022/04/06 04:28:02;;;;;;;;;;;9.80;99.90;;;;;;5036544;28;20016;-84
2022/04/06 04:30:27;;;;;;;;;;;9.70;1.00;;;;;;5039737;28;20304;-84
2022/04/06 04:32:53;;;;;;;;;;;9.70;1.00;;;;;;5044330;28;20348;-83
2022/04/06 04:35:18;;;;;;;;;;;9.70;1.00;;;;;;5042356;28;19928;-84
2022/04/06 04:37:44;;;;;;;;;;;9.70;1.00;;;;;;5042809;28;20043;-85
2022/04/06 04:40:10;;;;;;;;;;;9.70;1.00;;;;;;5029701;28;19985;-85
2022/04/06 04:42:35;;;;;;;;;;;9.80;34.80;;;;;;5035416;28;20305;-84
2022/04/06 04:45:01;;;;;;;;;;;9.70;99.90;;;;;;5041095;28;19943;-86
2022/04/06 04:47:27;;;;;;;;;;;9.80;99.90;;;;;;5044257;28;19927;-84
2022/04/06 04:49:52;;;;;;;;;;;9.70;99.90;;;;;;5043479;28;19921;-85
2022/04/06 04:52:18;;;;;;;;;;;9.70;99.90;;;;;;5043682;28;20390;-83
2022/04/06 04:54:43;;;;;;;;;;;9.70;99.90;;;;;;5046430;28;19960;-82
2022/04/06 04:57:09;;;;;;;;;;;9.70;99.90;;;;;;5046613;28;20270;-84
2022/04/06 04:59:34;;;;;;;;;;;9.70;99.90;;;;;;5043145;28;19999;-82
2022/04/06 05:02:00;;;;;;;;;;;9.70;99.90;;;;;;5051140;28;20011;-81
2022/04/06 05:04:25;;;;;;;;;;;9.70;93.30;;;;;;5045349;28;19912;-82
2022/04/06 05:06:51;;;;;;;;;;;9.70;27.30;;;;;;5048288;28;19917;-83
2022/04/06 05:09:17;;;;;;;;;;;9.70;1.00;;;;;;5049022;28;19913;-83
2022/04/06 05:11:43;;;;;;;;;;;9.70;1.00;;;;;;5046389;28;19963;-83
2022/04/06 05:14:09;;;;;;;;;;;9.70;1.00;;;;;;5043600;28;19926;-82
2022/04/06 05:16:35;;;;;;;;;;;9.80;1.00;;;;;;5045979;28;20336;-83
2022/04/06 05:19:01;;;;;;;;;;;9.80;1.00;;;;;;5042473;28;19913;-84
2022/04/06 05:21:26;;;;;;;;;;;9.80;1.00;;;;;;5046244;28;19909;-84
2022/04/06 05:23:52;;;;;;;;;;;9.80;99.90;;;;;;5043829;28;19925;-83
2022/04/06 05:26:17;;;;;;;;;;;9.80;99.90;;;;;;5029208;28;19917;-85
2022/04/06 05:28:43;;;;;;;;;;;9.90;99.90;;;;;;5049040;28;19913;-85
2022/04/06 05:31:08;;;;;;;;;;;9.80;99.90;;;;;;5045997;28;19917;-84
2022/04/06 05:33:34;;;;;;;;;;;9.90;99.90;;;;;;5048486;28;19920;-85
2022/04/06 05:35:59;;;;;;;;;;;9.90;1.00;;;;;;5045408;28;20011;-82
2022/04/06 05:38:25;;;;;;;;;;;9.90;1.00;;;;;;5044011;28;19909;-81
2022/04/06 05:40:51;;;;;;;;;;;10.00;1.00;;;;;;5042786;28;19963;-82
2022/04/06 05:43:17;;;;;;;;;;;10.10;1.00;;;;;;5043253;28;20357;-81
2022/04/06 05:45:42;;;;;;;;;;;10.10;1.00;;;;;;5040711;28;20001;-82
2022/04/06 05:48:08;;;;;;;;;;;10.10;99.90;;;;;;5046558;28;20375;-83
2022/04/06 05:50:34;;;;;;;;;;;10.10;99.90;;;;;;5044315;28;19920;-84
2022/04/06 05:52:59;;;;;;;;;;;10.10;99.90;;;;;;5042685;28;20398;-82
2022/04/06 05:55:25;;;;;;;;;;;10.10;99.90;;;;;;5043434;28;19913;-82
2022/04/06 05:57:50;;;;;;;;;;;10.10;99.90;;;;;;5043016;28;19964;-83
2022/04/06 06:00:16;;;;;;;;;;;10.10;99.90;;;;;;5047436;28;19909;-82
2022/04/06 06:02:43;;;;;;;;;;;10.10;99.90;;;;;;5046286;28;19920;-84
2022/04/06 06:05:08;;;;;;;;;;;10.10;99.90;;;;;;5050699;28;19959;-83
2022/04/06 06:07:34;;;;;;;;;;;10.10;99.90;;;;;;5046437;28;20328;-84
2022/04/06 06:09:59;;;;;;;;;;;10.10;99.90;;;;;;5046728;28;20452;-83
2022/04/06 06:12:25;;;;;;;;;;;10.10;99.90;;;;;;5049430;28;19923;-84
2022/04/06 06:14:51;;;;;;;;;;;10.10;99.90;;;;;;5037015;28;19921;-84
2022/04/06 06:17:16;;;;;;;;;;;10.10;99.90;;;;;;5037231;28;19925;-85
2022/04/06 06:19:41;;;;;;;;;;;10.10;99.90;;;;;;5043336;28;19958;-84
2022/04/06 06:22:07;;;;;;;;;;;10.10;99.90;;;;;;5048332;28;19947;-85
2022/04/06 06:24:32;;;;;;;;;;;10.20;99.90;;;;;;5040435;28;19913;-83
2022/04/06 06:26:58;;;;;;;;;;;10.20;60.40;;;;;;5037570;28;19924;-83
2022/04/06 06:29:24;;;;;;;;;;;10.20;29.00;;;;;;5040271;28;19913;-83
2022/04/06 06:31:49;;;;;;;;;;;10.20;15.20;;;;;;5044558;28;19913;-83
2022/04/06 06:34:15;;;;;;;;;;;10.20;1.00;;;;;;5045569;28;19913;-84
2022/04/06 06:36:40;;;;;;;;;;;10.20;27.70;;;;;;5053900;28;20005;-81
2022/04/06 06:39:06;;;;;;;;;;;10.20;1.00;;;;;;5039405;28;20435;-84
2022/04/06 06:41:32;;;;;;;;;;;10.30;1.00;;;;;;5046129;28;19913;-83
2022/04/06 06:43:58;;;;;;;;;;;10.30;1.00;;;;;;5042945;28;19936;-86
2022/04/06 06:46:24;;;;;;;;;;;10.20;1.00;;;;;;5040864;28;19948;-85
2022/04/06 06:48:49;;;;;;;;;;;10.20;7.20;;;;;;5040279;28;21765;-85
2022/04/06 06:51:16;;;;;;;;;;;10.20;31.30;;;;;;5058850;28;19939;-85
2022/04/06 06:53:41;;;;;;;;;;;10.30;79.20;;;;;;5041660;28;19967;-83
2022/04/06 06:56:07;;;;;;;;;;;10.30;35.10;;;;;;5046563;28;19916;-83
2022/04/06 06:58:32;;;;;;;;;;;10.40;34.60;;;;;;5042585;28;19959;-82
2022/04/06 07:00:58;;;;;;;;;;;10.40;1.00;;;;;;5055029;28;19974;-84
2022/04/06 07:03:23;;;;;;;;;;;10.40;1.00;;;;;;5052215;28;20416;-83
2022/04/06 07:05:49;;;;;;;;;;;10.40;1.00;;;;;;5061486;28;19909;-84
2022/04/06 07:08:15;;;;;;;;;;;10.40;1.00;;;;;;5053557;28;19913;-83
2022/04/06 07:10:44;;;;;;;;;;;10.40;1.00;;;;;;5048499;28;19943;-84
2022/04/06 07:13:12;;;;;;;;;;;10.40;1.00;;;;;;5043979;28;19923;-83
2022/04/06 07:15:41;;;;;;;;;;;10.40;1.00;;;;;;5046438;28;19960;-84
2022/04/06 07:18:08;;;;;;;;;;;10.40;1.00;;;;;;5040364;28;19917;-83
2022/04/06 07:20:35;;;;;;;;;;;10.50;1.00;;;;;;5038294;28;19913;-85
2022/04/06 07:23:04;;;;;;;;;;;10.50;1.00;;;;;;5048237;28;19921;-84
2022/04/06 07:25:30;;;;;;;;;;;10.50;1.00;;;;;;5046686;28;20399;-83
2022/04/06 07:27:56;;;;;;;;;;;10.50;1.00;;;;;;5035824;28;20000;-83
2022/04/06 07:30:21;;;;;;;;;;;10.50;1.00;;;;;;5044050;28;19913;-82
2022/04/06 07:32:46;;;;;;;;;;;10.50;1.00;;;;;;5041522;28;19913;-82
2022/04/06 07:35:12;;;;;;;;;;;10.40;1.00;;;;;;5047896;28;19999;-83
2022/04/06 07:37:41;;;;;;;;;;;10.50;1.00;;;;;;5042646;28;19913;-83
2022/04/06 07:40:08;;;;;;;;;;;10.40;99.90;;;;;;5047583;28;19967;-85
2022/04/06 07:42:35;;;;;;;;;;;10.50;99.90;;;;;;5052172;28;19959;-84
2022/04/06 07:45:13;;;;;;;;;;;10.60;99.90;;;;;;5043331;28;19914;-84
2022/04/06 07:47:40;;;;;;;;;;;10.70;99.90;;;;;;5033996;28;19991;-81
2022/04/06 07:50:06;;;;;;;;;;;10.70;99.90;;;;;;5030238;28;19920;-85
2022/04/06 07:52:31;;;;;;;;;;;10.70;95.70;;;;;;5035434;28;19926;-86
2022/04/06 07:54:57;;;;;;;;;;;10.80;12.70;;;;;;5034696;28;19917;-84
2022/04/06 07:57:26;;;;;;;;;;;10.90;1.00;;;;;;5025593;28;20336;-84
2022/04/06 07:59:52;;;;;;;;;;;11.00;1.00;;;;;;5033268;28;19920;-85
2022/04/06 08:02:17;;;;;;;;;;;11.00;1.00;;;;;;5035104;28;19913;-83
2022/04/06 08:04:43;;;;;;;;;;;10.90;1.00;;;;;;5031344;28;19917;-84
2022/04/06 08:07:08;;;;;;;;;;;10.90;1.00;;;;;;5041754;28;19967;-83
2022/04/06 08:09:34;;;;;;;;;;;10.90;99.90;;;;;;5041049;28;19925;-84
2022/04/06 08:12:00;;;;;;;;;;;10.80;99.90;;;;;;5037693;28;19960;-84
2022/04/06 08:14:26;;;;;;;;;;;10.90;99.90;;;;;;5040744;28;19984;-83
2022/04/06 08:16:51;;;;;;;;;;;10.90;99.90;;;;;;5039089;28;20000;-83
2022/04/06 08:19:17;;;;;;;;;;;10.90;99.90;;;;;;5037039;28;19913;-84
2022/04/06 08:21:48;;;;;;;;;;;10.90;99.90;;;;;;5035558;28;19924;-83
2022/04/06 08:24:14;;;;;;;;;;;11.00;99.90;;;;;;5036862;28;19985;-85
2022/04/06 08:26:40;;;;;;;;;;;11.00;99.90;;;;;;5036225;28;19956;-82
2022/04/06 08:29:05;;;;;;;;;;;11.00;99.90;;;;;;5035589;28;20477;-84
2022/04/06 08:31:31;;;;;;;;;;;11.00;99.90;;;;;;5032011;28;19914;-83
2022/04/06 08:33:56;;;;;;;;;;;11.00;99.90;;;;;;5037218;28;19920;-84
2022/04/06 08:36:22;;;;;;;;;;;11.00;99.90;;;;;;5031947;28;20342;-82
2022/04/06 08:38:48;;;;;;;;;;;11.10;99.90;;;;;;5040261;28;19916;-85
2022/04/06 08:41:15;;;;;;;;;;;11.40;99.90;;;;;;5032902;28;19928;-84
2022/04/06 08:43:41;;;;;;;;;;;11.70;99.90;;;;;;5042432;28;20391;-85
2022/04/06 08:46:09;;;;;;;;;;;11.90;99.90;;;;;;5038126;28;19913;-81
2022/04/06 08:48:35;;;;;;;;;;;12.20;99.90;;;;;;5040834;28;19948;-84
2022/04/06 08:51:00;;;;;;;;;;;12.60;1.00;;;;;;5038329;28;19909;-82
2022/04/06 08:53:26;;;;;;;;;;;12.70;1.00;;;;;;5047382;28;19920;-84
2022/04/06 08:55:51;;;;;;;;;;;13.10;1.00;;;;;;5043210;28;19917;-84
2022/04/06 08:58:17;;;;;;;;;;;13.30;99.90;;;;;;5048078;28;20378;-81
2022/04/06 09:00:43;;;;;;;;;;;13.50;99.90;;;;;;5047784;28;19913;-81
2022/04/06 09:03:09;;;;;;;;;;;13.50;99.90;;;;;;5049045;28;19971;-82
2022/04/06 09:05:35;;;;;;;;;;;13.60;99.90;;;;;;5050798;28;19913;-82
2022/04/06 09:08:01;;;;;;;;;;;13.60;99.90;;;;;;5042402;28;20445;-84
2022/04/06 09:10:33;;;;;;;;;;;13.40;99.90;;;;;;5033245;28;19917;-83
2022/04/06 09:13:12;;;;;;;;;;;13.50;99.90;;;;;;5035597;28;19917;-85
2022/04/06 09:15:38;;;;;;;;;;;13.60;99.90;;;;;;5036155;28;20343;-84
2022/04/06 09:18:03;;;;;;;;;;;13.30;99.90;;;;;;5037934;28;19913;-84
2022/04/06 09:20:29;;;;;;;;;;;13.10;99.90;;;;;;5037984;28;19924;-85
2022/04/06 09:22:54;;;;;;;;;;;13.00;99.90;;;;;;5024654;28;20014;-85
2022/04/06 09:25:20;;;;;;;;;;;13.00;99.90;;;;;;5038778;28;19972;-83
2022/04/06 09:27:46;;;;;;;;;;;12.90;99.90;;;;;;5039179;28;20516;-85
2022/04/06 09:30:11;;;;;;;;;;;12.80;99.90;;;;;;5037526;28;19913;-85
2022/04/06 09:32:39;;;;;;;;;;;12.40;99.90;;;;;;5037966;28;19924;-83
2022/04/06 09:35:25;;;;;;;;;;;12.30;99.90;;;;;;5037169;28;19947;-86
2022/04/06 09:38:07;;;;;;;;;;;12.20;99.90;;;;;;5034307;28;19948;-83
2022/04/06 09:40:32;;;;;;;;;;;12.30;99.90;;;;;;5052915;28;19913;-85
2022/04/06 09:42:58;;;;;;;;;;;12.30;99.90;;;;;;5035358;28;20017;-83
2022/04/06 09:48:14;;;;;;;;;;;12.50;99.90;;;;;;5036988;28;20645;-83
2022/04/06 09:50:42;;;;;;;;;;;12.40;99.90;;;;;;5037331;28;19917;-84
2022/04/06 09:53:07;;;;;;;;;;;12.40;99.90;;;;;;5032971;28;19920;-83
2022/04/06 09:55:33;;;;;;;;;;;12.40;99.90;;;;;;5033226;28;19917;-84
2022/04/06 09:58:01;;;;;;;;;;;12.40;99.90;;;;;;5036149;28;19928;-85
2022/04/06 10:00:28;;;;;;;;;;;12.30;99.90;;;;;;5036779;28;19913;-84
2022/04/06 10:02:59;;;;;;;;;;;12.20;99.90;;;;;;5037123;28;20270;-85
2022/04/06 10:05:27;;;;;;;;;;;12.10;99.90;;;;;;5036169;28;19913;-84
2022/04/06 10:07:53;;;;;;;;;;;12.10;99.90;;;;;;5035630;28;19920;-84
2022/04/06 10:10:21;;;;;;;;;;;12.10;99.90;;;;;;5035822;28;19932;-83
2022/04/06 10:12:47;;;;;;;;;;;12.10;99.90;;;;;;5033273;28;20270;-83
2022/04/06 10:15:14;;;;;;;;;;;12.20;99.90;;;;;;5033170;28;19931;-83
2022/04/06 10:17:39;;;;;;;;;;;12.20;99.90;;;;;;5038245;28;19916;-85
2022/04/06 10:20:08;;;;;;;;;;;12.20;99.90;;;;;;5033559;28;20388;-85
2022/04/06 10:22:47;;;;;;;;;;;12.20;99.90;;;;;;5035544;28;19917;-83
2022/04/06 10:25:31;;;;;;;;;;;12.40;99.90;;;;;;5037529;28;19955;-85
2022/04/06 10:27:57;;;;;;;;;;;12.40;99.90;;;;;;5034039;28;19967;-85
2022/04/06 10:30:23;;;;;;;;;;;12.40;99.90;;;;;;5039468;28;19914;-84
2022/04/06 10:32:53;;;;;;;;;;;12.40;99.90;;;;;;5041216;28;20048;-80
2022/04/06 10:35:22;;;;;;;;;;;12.50;99.90;;;;;;5037903;28;19925;-83
2022/04/06 10:37:56;;;;;;;;;;;12.70;99.90;;;;;;5037144;28;20210;-83
2022/04/06 10:40:22;;;;;;;;;;;12.70;99.90;;;;;;5036442;28;19913;-84
2022/04/06 10:42:48;;;;;;;;;;;12.80;99.90;;;;;;5036234;28;20479;-84
2022/04/06 10:45:29;;;;;;;;;;;13.00;99.90;;;;;;5036706;28;20300;-84
2022/04/06 10:48:14;;;;;;;;;;;13.10;99.90;;;;;;5047142;28;19912;-84
2022/04/06 10:50:40;;;;;;;;;;;13.10;99.90;;;;;;5038111;28;19960;-83
2022/04/06 10:53:18;;;;;;;;;;;13.30;99.90;;;;;;5033426;28;20578;-83
2022/04/06 10:55:59;;;;;;;;;;;13.50;99.90;;;;;;5040514;28;19917;-83
2022/04/06 10:58:26;;;;;;;;;;;13.90;99.90;;;;;;5040187;28;19912;-83
2022/04/06 11:01:10;;;;;;;;;;;14.00;99.90;;;;;;5050610;28;19909;-82
2022/04/06 11:03:40;;;;;;;;;;;14.20;99.90;;;;;;5041057;28;20400;-82
2022/04/06 11:06:05;;;;;;;;;;;14.40;99.90;;;;;;5043704;28;19916;-84
2022/04/06 11:11:38;;;;;;;;;;;14.20;99.90;;;;;;5036356;28;19924;-82
2022/04/06 11:14:04;;;;;;;;;;;13.90;99.90;;;;;;5034755;28;19913;-84
2022/04/06 11:16:45;;;;;;;;;;;13.80;99.90;;;;;;5034804;28;19924;-84
2022/04/06 11:19:11;;;;;;;;;;;13.60;99.90;;;;;;5033207;28;19944;-84
2022/04/06 11:21:45;;;;;;;;;;;13.40;99.90;;;;;;5035949;28;19913;-85
2022/04/06 11:24:10;;;;;;;;;;;13.30;99.90;;;;;;5036323;28;19913;-85
2022/04/06 11:26:39;;;;;;;;;;;13.40;99.90;;;;;;5038688;28;19917;-85
2022/04/06 11:29:04;;;;;;;;;;;13.40;99.90;;;;;;5039466;28;20044;-84
2022/04/06 11:31:30;;;;;;;;;;;13.20;99.90;;;;;;5038529;28;20417;-84
2022/04/06 11:33:55;;;;;;;;;;;13.00;99.90;;;;;;5035560;28;19913;-84
2022/04/06 11:36:21;;;;;;;;;;;13.00;99.90;;;;;;5035753;28;19926;-84
2022/04/06 11:38:50;;;;;;;;;;;12.90;99.90;;;;;;5042441;28;20213;-83
2022/04/06 11:41:16;;;;;;;;;;;13.00;99.90;;;;;;5036488;28;19913;-84
2022/04/06 11:43:42;;;;;;;;;;;13.10;99.90;;;;;;5038501;28;19936;-84
2022/04/06 11:46:08;;;;;;;;;;;13.20;99.90;;;;;;5054983;28;20183;-84
2022/04/06 11:48:40;;;;;;;;;;;13.20;99.90;;;;;;5045862;28;20058;-84
2022/04/06 11:51:06;;;;;;;;;;;13.30;99.90;;;;;;5032671;28;19913;-84
2022/04/06 11:53:31;;;;;;;;;;;13.10;99.90;;;;;;5029088;28;20251;-84
2022/04/06 11:55:59;;;;;;;;;;;12.90;99.90;;;;;;5032497;28;19971;-84
2022/04/06 11:58:32;;;;;;;;;;;12.80;99.90;;;;;;5035489;28;19913;-82
2022/04/06 12:00:59;;;;;;;;;;;12.80;99.90;;;;;;5046915;28;19912;-82
2022/04/06 12:03:28;;;;;;;;;;;12.70;99.90;;;;;;5041222;28;19920;-82
2022/04/06 12:05:54;;;;;;;;;;;12.70;99.90;;;;;;5055104;28;19958;-84
2022/04/06 12:08:19;;;;;;;;;;;12.70;99.90;;;;;;5039457;28;20316;-83
2022/04/06 12:10:52;;;;;;;;;;;12.70;99.90;;;;;;5038103;28;19913;-82
2022/04/06 12:13:22;;;;;;;;;;;12.80;99.90;;;;;;5034577;28;19947;-83
2022/04/06 12:15:48;;;;;;;;;;;12.70;99.90;;;;;;5039238;28;19921;-81
2022/04/06 12:18:20;;;;;;;;;;;12.80;99.90;;;;;;5033055;28;20004;-83
2022/04/06 12:20:46;;;;;;;;;;;12.80;99.90;;;;;;5034094;28;20003;-81
2022/04/06 12:23:12;;;;;;;;;;;12.70;99.90;;;;;;5037662;28;19998;-84
2022/04/06 12:25:37;;;;;;;;;;;12.70;99.90;;;;;;5035361;28;20409;-81
2022/04/06 12:28:10;;;;;;;;;;;12.70;99.90;;;;;;5037174;28;19996;-85
2022/04/06 12:30:49;;;;;;;;;;;12.70;99.90;;;;;;5027036;28;20011;-82
2022/04/06 12:33:14;;;;;;;;;;;12.90;99.90;;;;;;5038120;28;19952;-84
2022/04/06 12:35:40;;;;;;;;;;;13.20;99.90;;;;;;5035396;28;19941;-85
2022/04/06 12:38:15;;;;;;;;;;;13.40;99.90;;;;;;5040536;28;19916;-85
2022/04/06 12:40:41;;;;;;;;;;;13.50;99.90;;;;;;5049735;28;19924;-85
2022/04/06 12:43:21;;;;;;;;;;;13.60;99.90;;;;;;5031313;28;19917;-86
2022/04/06 12:45:47;;;;;;;;;;;13.70;99.90;;;;;;5030079;28;20398;-83
2022/04/06 12:48:17;;;;;;;;;;;13.70;99.90;;;;;;5032032;28;19970;-84
2022/04/06 12:50:43;;;;;;;;;;;13.80;99.90;;;;;;5036002;28;19913;-83
2022/04/06 12:53:10;;;;;;;;;;;13.80;99.90;;;;;;5060002;28;20440;-84
2022/04/06 12:55:36;;;;;;;;;;;13.80;99.90;;;;;;5050812;28;19921;-84
2022/04/06 12:58:14;;;;;;;;;;;13.70;99.90;;;;;;5051130;28;19913;-84
2022/04/06 13:00:39;;;;;;;;;;;13.60;99.90;;;;;;5056745;28;19919;-87
2022/04/06 13:03:05;;;;;;;;;;;13.60;99.90;;;;;;5050670;28;19956;-84
2022/04/06 13:05:31;;;;;;;;;;;13.50;99.90;;;;;;5032737;28;19929;-84
2022/04/06 13:07:56;;;;;;;;;;;13.40;99.90;;;;;;5057052;28;19963;-84
2022/04/06 13:10:29;;;;;;;;;;;13.20;99.90;;;;;;5057519;28;19909;-84
2022/04/06 13:12:54;;;;;;;;;;;13.20;99.90;;;;;;5052970;28;19960;-84
2022/04/06 13:15:20;;;;;;;;;;;13.20;99.90;;;;;;5053541;28;19913;-84
2022/04/06 13:17:46;;;;;;;;;;;13.10;99.90;;;;;;5045200;28;19956;-85
2022/04/06 13:20:13;;;;;;;;;;;13.20;99.90;;;;;;5044674;28;19916;-83
2022/04/06 13:22:39;;;;;;;;;;;13.20;99.90;;;;;;5044552;28;20316;-85
2022/04/06 13:25:06;;;;;;;;;;;13.20;99.90;;;;;;5040779;28;19910;-84
2022/04/06 13:27:31;;;;;;;;;;;13.20;99.90;;;;;;5058374;28;19920;-84
2022/04/06 13:29:59;;;;;;;;;;;13.30;99.90;;;;;;5057009;28;20303;-84
2022/04/06 13:32:24;;;;;;;;;;;13.40;99.90;;;;;;5056350;28;19909;-84
2022/04/06 13:34:50;;;;;;;;;;;13.60;99.90;;;;;;5059141;28;19973;-86
2022/04/06 13:37:17;;;;;;;;;;;13.70;99.90;;;;;;5044385;28;19917;-84
2022/04/06 13:39:42;;;;;;;;;;;13.70;99.90;;;;;;5043015;28;19962;-84
2022/04/06 13:42:09;;;;;;;;;;;13.70;99.90;;;;;;5038923;28;19936;-84
2022/04/06 13:44:35;;;;;;;;;;;13.80;99.90;;;;;;5049145;28;19909;-84
2022/04/06 13:47:01;;;;;;;;;;;14.00;99.90;;;;;;5053862;28;20317;-84
2022/04/06 13:49:27;;;;;;;;;;;14.20;99.90;;;;;;5065663;28;19932;-85
2022/04/06 13:51:54;;;;;;;;;;;14.40;99.90;;;;;;5058307;28;19909;-84
2022/04/06 13:54:20;;;;;;;;;;;14.50;99.90;;;;;;5067521;28;20285;-84
2022/04/06 13:56:46;;;;;;;;;;;14.60;99.90;;;;;;5031405;28;19909;-84
2022/04/06 13:59:12;;;;;;;;;;;14.60;99.90;;;;;;5055729;28;20336;-83
2022/04/06 14:01:38;;;;;;;;;;;14.50;99.90;;;;;;5039756;28;19935;-83
2022/04/06 14:04:04;;;;;;;;;;;14.40;99.90;;;;;;5030422;28;19956;-84
2022/04/06 14:06:30;;;;;;;;;;;14.20;99.90;;;;;;5024655;28;20008;-84
2022/04/06 14:08:55;;;;;;;;;;;14.30;99.90;;;;;;5041923;28;19916;-84
2022/04/06 14:11:21;;;;;;;;;;;14.30;99.90;;;;;;5062668;28;19952;-84
2022/04/06 14:13:46;;;;;;;;;;;14.50;99.90;;;;;;5054359;28;19967;-84
2022/04/06 14:16:12;;;;;;;;;;;14.70;99.90;;;;;;5042997;28;19992;-84
2022/04/06 14:18:38;;;;;;;;;;;14.90;99.90;;;;;;5041179;28;19910;-84
2022/04/06 14:21:03;;;;;;;;;;;15.00;99.90;;;;;;5051096;28;19909;-83
2022/04/06 14:23:29;;;;;;;;;;;14.80;99.90;;;;;;5044857;28;19909;-84
2022/04/06 14:25:55;;;;;;;;;;;14.70;99.90;;;;;;5051699;28;19909;-84
2022/04/06 14:28:21;;;;;;;;;;;14.60;99.90;;;;;;5039214;28;19917;-85